sensor_id;sensor_type;location;lat;lon;timestamp;temperature;humidity
24645;DHT22;12780;45.502;9.146;2023-03-30T00:00:17;14.40;99.90
24645;DHT22;12780;45.502;9.146;2023-03-30T00:02:45;14.20;99.90
24645;DHT22;12780;45.502;9.146;2023-03-30T00:05:11;14.20;99.90
24645;DHT22;12780;45.502;9.146;2023-03-30T00:07:38;14.20;99.90
24645;DHT22;12780;45.502;9.146;2023-03-30T00:10:10;14.20;99.90
24645;DHT22;12780;45.502;9.146;2023-03-30T00:12:36;14.30;99.90
24645;DHT22;12780;45.502;9.146;2023-03-30T00:15:02;14.30;99.90
24645;DHT22;12780;45.502;9.146;2023-03-30T00:17:27;14.30;99.90
24645;DHT22;12780;45.502;9.146;2023-03-30T00:19:53;14.30;99.90
24645;DHT22;12780;45.502;9.146;2023-03-30T00:22:19;14.30;99.90
24645;DHT22;12780;45.502;9.146;2023-03-30T00:24:45;14.30;99.90
24645;DHT22;12780;45.502;9.146;2023-03-30T00:27:10;14.20;99.90
24645;DHT22;12780;45.502;9.146;2023-03-30T00:29:36;14.20;99.90
24645;DHT22;12780;45.502;9.146;2023-03-30T00:32:01;14.20;99.90
24645;DHT22;12780;45.502;9.146;2023-03-30T00:34:27;14.30;99.90
24645;DHT22;12780;45.502;9.146;2023-03-30T00:36:53;14.20;99.90
24645;DHT22;12780;45.502;9.146;2023-03-30T00:39:20;14.20;99.90
24645;DHT22;12780;45.502;9.146;2023-03-30T00:41:47;14.20;99.90
24645;DHT22;12780;45.502;9.146;2023-03-30T00:47:16;14.30;99.90
24645;DHT22;12780;45.502;9.146;2023-03-30T00:49:43;14.30;99.90
24645;DHT22;12780;45.502;9.146;2023-03-30T00:52:10;14.30;99.90
24645;DHT22;12780;45.502;9.146;2023-03-30T00:54:37;14.30;99.90
24645;DHT22;12780;45.502;9.146;2023-03-30T00:57:05;14.30;99.90
24645;DHT22;12780;45.502;9.146;2023-03-30T00:59:31;14.30;99.90
24645;DHT22;12780;45.502;9.146;2023-03-30T01:01:56;14.40;99.90
24645;DHT22;12780;45.502;9.146;2023-03-30T01:04:23;14.40;99.90
24645;DHT22;12780;45.502;9.146;2023-03-30T01:06:50;14.40;99.90
24645;DHT22;12780;45.502;9.146;2023-03-30T01:09:17;14.40;99.90
24645;DHT22;12780;45.502;9.146;2023-03-30T01:11:43;14.40;99.90
24645;DHT22;12780;45.502;9.146;2023-03-30T01:14:11;14.40;99.90
24645;DHT22;12780;45.502;9.146;2023-03-30T01:19:39;14.30;99.90
24645;DHT22;12780;45.502;9.146;2023-03-30T01:36:38;14.30;99.90
24645;DHT22;12780;45.502;9.146;2023-03-30T01:42:10;14.30;99.90
24645;DHT22;12780;45.502;9.146;2023-03-30T01:44:52;14.40;99.90
24645;DHT22;12780;45.502;9.146;2023-03-30T01:47:23;14.30;99.90
24645;DHT22;12780;45.502;9.146;2023-03-30T01:52:41;14.20;99.90
24645;DHT22;12780;45.502;9.146;2023-03-30T01:55:18;14.20;99.90
24645;DHT22;12780;45.502;9.146;2023-03-30T01:57:49;14.20;99.90
24645;DHT22;12780;45.502;9.146;2023-03-30T02:00:19;14.20;99.90
24645;DHT22;12780;45.502;9.146;2023-03-30T02:02:52;14.20;99.90
24645;DHT22;12780;45.502;9.146;2023-03-30T02:05:20;14.20;99.90
24645;DHT22;12780;45.502;9.146;2023-03-30T02:07:50;14.20;99.90
24645;DHT22;12780;45.502;9.146;2023-03-30T02:10:18;14.10;99.90
24645;DHT22;12780;45.502;9.146;2023-03-30T02:12:46;14.20;99.90
24645;DHT22;12780;45.502;9.146;2023-03-30T02:15:13;14.10;99.90
24645;DHT22;12780;45.502;9.146;2023-03-30T02:17:40;14.10;99.90
24645;DHT22;12780;45.502;9.146;2023-03-30T02:20:07;14.00;99.90
24645;DHT22;12780;45.502;9.146;2023-03-30T02:22:37;14.00;99.90
24645;DHT22;12780;45.502;9.146;2023-03-30T02:25:04;14.00;99.90
24645;DHT22;12780;45.502;9.146;2023-03-30T02:27:31;14.10;99.90
24645;DHT22;12780;45.502;9.146;2023-03-30T02:29:58;14.20;99.90
24645;DHT22;12780;45.502;9.146;2023-03-30T02:32:32;14.20;99.90
24645;DHT22;12780;45.502;9.146;2023-03-30T02:38:24;14.40;99.90
24645;DHT22;12780;45.502;9.146;2023-03-30T02:46:57;14.30;99.90
24645;DHT22;12780;45.502;9.146;2023-03-30T02:49:40;14.40;99.90
24645;DHT22;12780;45.502;9.146;2023-03-30T02:55:32;14.40;99.90
24645;DHT22;12780;45.502;9.146;2023-03-30T02:58:36;14.50;99.90
24645;DHT22;12780;45.502;9.146;2023-03-30T03:01:17;14.50;99.90
24645;DHT22;12780;45.502;9.146;2023-03-30T03:03:46;14.50;99.90
24645;DHT22;12780;45.502;9.146;2023-03-30T03:06:13;14.40;99.90
24645;DHT22;12780;45.502;9.146;2023-03-30T03:08:41;14.30;99.90
24645;DHT22;12780;45.502;9.146;2023-03-30T03:11:07;14.20;99.90
24645;DHT22;12780;45.502;9.146;2023-03-30T03:13:34;14.10;99.90
24645;DHT22;12780;45.502;9.146;2023-03-30T03:16:04;14.10;99.90
24645;DHT22;12780;45.502;9.146;2023-03-30T03:18:30;14.20;99.90
24645;DHT22;12780;45.502;9.146;2023-03-30T03:20:57;14.20;99.90
24645;DHT22;12780;45.502;9.146;2023-03-30T03:23:23;14.20;99.90
24645;DHT22;12780;45.502;9.146;2023-03-30T03:25:49;14.30;99.90
24645;DHT22;12780;45.502;9.146;2023-03-30T03:28:14;14.40;99.90
24645;DHT22;12780;45.502;9.146;2023-03-30T03:30:40;14.40;99.90
24645;DHT22;12780;45.502;9.146;2023-03-30T03:33:06;14.40;99.90
24645;DHT22;12780;45.502;9.146;2023-03-30T03:35:31;14.40;99.90
24645;DHT22;12780;45.502;9.146;2023-03-30T03:37:57;14.30;99.90
24645;DHT22;12780;45.502;9.146;2023-03-30T03:40:22;14.30;99.90
24645;DHT22;12780;45.502;9.146;2023-03-30T03:42:48;14.30;99.90
24645;DHT22;12780;45.502;9.146;2023-03-30T03:45:14;14.40;99.90
24645;DHT22;12780;45.502;9.146;2023-03-30T03:47:39;14.40;99.90
24645;DHT22;12780;45.502;9.146;2023-03-30T03:50:05;14.40;99.90
24645;DHT22;12780;45.502;9.146;2023-03-30T03:52:34;14.50;99.90
24645;DHT22;12780;45.502;9.146;2023-03-30T03:55:00;14.50;99.90
24645;DHT22;12780;45.502;9.146;2023-03-30T03:57:26;14.60;99.90
24645;DHT22;12780;45.502;9.146;2023-03-30T03:59:52;14.60;99.90
24645;DHT22;12780;45.502;9.146;2023-03-30T04:02:19;14.70;99.90
24645;DHT22;12780;45.502;9.146;2023-03-30T04:04:45;14.60;99.90
24645;DHT22;12780;45.502;9.146;2023-03-30T04:07:10;14.70;99.90
24645;DHT22;12780;45.502;9.146;2023-03-30T04:09:36;14.70;99.90
24645;DHT22;12780;45.502;9.146;2023-03-30T04:12:01;14.60;99.90
24645;DHT22;12780;45.502;9.146;2023-03-30T04:14:27;14.60;99.90
24645;DHT22;12780;45.502;9.146;2023-03-30T04:16:53;14.60;99.90
24645;DHT22;12780;45.502;9.146;2023-03-30T04:19:22;14.70;99.90
24645;DHT22;12780;45.502;9.146;2023-03-30T04:21:50;14.70;99.90
24645;DHT22;12780;45.502;9.146;2023-03-30T04:24:17;14.70;99.90
24645;DHT22;12780;45.502;9.146;2023-03-30T04:26:43;14.60;99.90
24645;DHT22;12780;45.502;9.146;2023-03-30T04:29:14;14.60;99.90
24645;DHT22;12780;45.502;9.146;2023-03-30T04:31:41;14.60;99.90
24645;DHT22;12780;45.502;9.146;2023-03-30T04:34:11;14.60;99.90
24645;DHT22;12780;45.502;9.146;2023-03-30T04:36:37;14.80;99.90
24645;DHT22;12780;45.502;9.146;2023-03-30T04:39:02;14.70;99.90
24645;DHT22;12780;45.502;9.146;2023-03-30T04:41:31;14.60;99.90
24645;DHT22;12780;45.502;9.146;2023-03-30T04:44:05;14.60;99.90
24645;DHT22;12780;45.502;9.146;2023-03-30T04:46:32;14.70;99.90
24645;DHT22;12780;45.502;9.146;2023-03-30T04:48:58;14.80;99.90
24645;DHT22;12780;45.502;9.146;2023-03-30T04:51:24;14.70;99.90
24645;DHT22;12780;45.502;9.146;2023-03-30T04:53:49;14.90;99.90
24645;DHT22;12780;45.502;9.146;2023-03-30T04:56:15;14.80;99.90
24645;DHT22;12780;45.502;9.146;2023-03-30T04:58:40;14.70;99.90
24645;DHT22;12780;45.502;9.146;2023-03-30T05:01:06;14.70;99.90
24645;DHT22;12780;45.502;9.146;2023-03-30T05:03:33;14.60;99.90
24645;DHT22;12780;45.502;9.146;2023-03-30T05:05:58;14.70;99.90
24645;DHT22;12780;45.502;9.146;2023-03-30T05:08:24;14.70;99.90
24645;DHT22;12780;45.502;9.146;2023-03-30T05:10:49;14.70;99.90
24645;DHT22;12780;45.502;9.146;2023-03-30T05:13:15;14.70;99.90
24645;DHT22;12780;45.502;9.146;2023-03-30T05:15:41;14.80;99.90
24645;DHT22;12780;45.502;9.146;2023-03-30T05:18:07;14.80;99.90
24645;DHT22;12780;45.502;9.146;2023-03-30T05:20:32;14.80;99.90
24645;DHT22;12780;45.502;9.146;2023-03-30T05:22:58;14.80;99.90
24645;DHT22;12780;45.502;9.146;2023-03-30T05:25:24;14.90;99.90
24645;DHT22;12780;45.502;9.146;2023-03-30T05:27:50;14.70;99.90
24645;DHT22;12780;45.502;9.146;2023-03-30T05:30:15;14.70;99.90
24645;DHT22;12780;45.502;9.146;2023-03-30T05:32:41;14.70;99.90
24645;DHT22;12780;45.502;9.146;2023-03-30T05:35:07;14.70;99.90
24645;DHT22;12780;45.502;9.146;2023-03-30T05:37:33;14.60;99.90
24645;DHT22;12780;45.502;9.146;2023-03-30T05:39:59;14.70;99.90
24645;DHT22;12780;45.502;9.146;2023-03-30T05:42:24;14.70;99.90
24645;DHT22;12780;45.502;9.146;2023-03-30T05:44:50;14.70;99.90
24645;DHT22;12780;45.502;9.146;2023-03-30T05:47:16;14.70;99.90
24645;DHT22;12780;45.502;9.146;2023-03-30T05:49:42;14.80;99.90
24645;DHT22;12780;45.502;9.146;2023-03-30T05:52:08;14.70;99.90
24645;DHT22;12780;45.502;9.146;2023-03-30T05:54:33;14.70;99.90
24645;DHT22;12780;45.502;9.146;2023-03-30T05:56:59;14.70;99.90
24645;DHT22;12780;45.502;9.146;2023-03-30T05:59:25;14.70;99.90
24645;DHT22;12780;45.502;9.146;2023-03-30T06:01:50;14.80;99.90
24645;DHT22;12780;45.502;9.146;2023-03-30T06:04:16;14.80;99.90
24645;DHT22;12780;45.502;9.146;2023-03-30T06:06:41;14.90;99.90
24645;DHT22;12780;45.502;9.146;2023-03-30T06:09:07;14.90;99.90
24645;DHT22;12780;45.502;9.146;2023-03-30T06:11:32;14.90;99.90
24645;DHT22;12780;45.502;9.146;2023-03-30T06:13:58;14.80;99.90
24645;DHT22;12780;45.502;9.146;2023-03-30T06:16:24;14.80;99.90
24645;DHT22;12780;45.502;9.146;2023-03-30T06:18:50;14.90;99.90
24645;DHT22;12780;45.502;9.146;2023-03-30T06:21:16;14.80;99.90
24645;DHT22;12780;45.502;9.146;2023-03-30T06:23:41;14.90;99.90
24645;DHT22;12780;45.502;9.146;2023-03-30T06:26:07;14.90;99.90
24645;DHT22;12780;45.502;9.146;2023-03-30T06:28:34;15.10;99.90
24645;DHT22;12780;45.502;9.146;2023-03-30T06:31:00;15.10;99.90
24645;DHT22;12780;45.502;9.146;2023-03-30T06:33:27;15.10;99.90
24645;DHT22;12780;45.502;9.146;2023-03-30T06:35:53;15.00;99.90
24645;DHT22;12780;45.502;9.146;2023-03-30T06:38:20;15.10;99.90
24645;DHT22;12780;45.502;9.146;2023-03-30T06:40:46;15.00;99.90
24645;DHT22;12780;45.502;9.146;2023-03-30T06:43:15;15.00;99.90
24645;DHT22;12780;45.502;9.146;2023-03-30T06:45:42;15.10;99.90
24645;DHT22;12780;45.502;9.146;2023-03-30T06:48:07;15.10;99.90
24645;DHT22;12780;45.502;9.146;2023-03-30T06:50:33;15.20;99.90
24645;DHT22;12780;45.502;9.146;2023-03-30T06:52:59;15.10;99.90
24645;DHT22;12780;45.502;9.146;2023-03-30T06:55:24;15.20;99.90
24645;DHT22;12780;45.502;9.146;2023-03-30T06:57:50;15.30;99.90
24645;DHT22;12780;45.502;9.146;2023-03-30T07:00:16;15.10;99.90
24645;DHT22;12780;45.502;9.146;2023-03-30T07:02:42;15.10;99.90
24645;DHT22;12780;45.502;9.146;2023-03-30T07:05:09;15.00;99.90
24645;DHT22;12780;45.502;9.146;2023-03-30T07:07:35;15.10;99.90
24645;DHT22;12780;45.502;9.146;2023-03-30T07:10:02;15.10;99.90
24645;DHT22;12780;45.502;9.146;2023-03-30T07:12:37;15.10;99.90
24645;DHT22;12780;45.502;9.146;2023-03-30T07:15:04;15.10;99.90
24645;DHT22;12780;45.502;9.146;2023-03-30T07:17:32;15.10;99.90
24645;DHT22;12780;45.502;9.146;2023-03-30T07:19:57;15.20;99.90
24645;DHT22;12780;45.502;9.146;2023-03-30T07:22:23;15.00;99.90
24645;DHT22;12780;45.502;9.146;2023-03-30T07:24:48;15.10;99.90
24645;DHT22;12780;45.502;9.146;2023-03-30T07:27:14;15.10;99.90
24645;DHT22;12780;45.502;9.146;2023-03-30T07:29:40;15.10;99.90
24645;DHT22;12780;45.502;9.146;2023-03-30T07:32:06;15.10;99.90
24645;DHT22;12780;45.502;9.146;2023-03-30T07:34:31;15.20;99.90
24645;DHT22;12780;45.502;9.146;2023-03-30T07:36:58;15.20;99.90
24645;DHT22;12780;45.502;9.146;2023-03-30T07:39:24;15.20;99.90
24645;DHT22;12780;45.502;9.146;2023-03-30T07:41:50;15.20;99.90
24645;DHT22;12780;45.502;9.146;2023-03-30T07:44:15;15.20;99.90
24645;DHT22;12780;45.502;9.146;2023-03-30T07:46:41;15.20;99.90
24645;DHT22;12780;45.502;9.146;2023-03-30T07:49:06;15.30;99.90
24645;DHT22;12780;45.502;9.146;2023-03-30T07:51:32;15.30;99.90
24645;DHT22;12780;45.502;9.146;2023-03-30T07:53:59;15.30;99.90
24645;DHT22;12780;45.502;9.146;2023-03-30T07:56:24;15.40;99.90
24645;DHT22;12780;45.502;9.146;2023-03-30T07:58:50;15.40;99.90
24645;DHT22;12780;45.502;9.146;2023-03-30T08:01:16;15.50;99.90
24645;DHT22;12780;45.502;9.146;2023-03-30T08:03:42;15.40;99.90
24645;DHT22;12780;45.502;9.146;2023-03-30T08:06:09;15.60;99.90
24645;DHT22;12780;45.502;9.146;2023-03-30T08:08:36;15.60;99.90
24645;DHT22;12780;45.502;9.146;2023-03-30T08:11:03;15.60;99.90
24645;DHT22;12780;45.502;9.146;2023-03-30T08:13:29;15.60;99.90
24645;DHT22;12780;45.502;9.146;2023-03-30T08:15:57;15.60;99.90
24645;DHT22;12780;45.502;9.146;2023-03-30T08:18:23;15.50;99.90
24645;DHT22;12780;45.502;9.146;2023-03-30T08:20:51;15.60;99.90
24645;DHT22;12780;45.502;9.146;2023-03-30T08:23:17;15.60;99.90
24645;DHT22;12780;45.502;9.146;2023-03-30T08:25:43;15.60;99.90
24645;DHT22;12780;45.502;9.146;2023-03-30T08:28:10;15.60;99.90
24645;DHT22;12780;45.502;9.146;2023-03-30T08:30:35;15.60;99.90
24645;DHT22;12780;45.502;9.146;2023-03-30T08:33:01;15.70;99.90
24645;DHT22;12780;45.502;9.146;2023-03-30T08:35:27;15.70;99.90
24645;DHT22;12780;45.502;9.146;2023-03-30T08:37:53;15.60;99.90
24645;DHT22;12780;45.502;9.146;2023-03-30T08:40:20;15.70;99.90
24645;DHT22;12780;45.502;9.146;2023-03-30T08:45:35;15.90;99.90
24645;DHT22;12780;45.502;9.146;2023-03-30T08:48:01;16.00;99.90
24645;DHT22;12780;45.502;9.146;2023-03-30T08:50:35;16.00;99.90
24645;DHT22;12780;45.502;9.146;2023-03-30T08:53:06;16.00;99.90
24645;DHT22;12780;45.502;9.146;2023-03-30T08:55:39;16.00;99.90
24645;DHT22;12780;45.502;9.146;2023-03-30T08:58:14;16.00;99.90
24645;DHT22;12780;45.502;9.146;2023-03-30T09:00:59;15.90;99.90
24645;DHT22;12780;45.502;9.146;2023-03-30T09:03:47;15.90;99.90
24645;DHT22;12780;45.502;9.146;2023-03-30T09:06:36;15.90;99.90
24645;DHT22;12780;45.502;9.146;2023-03-30T09:09:04;16.00;99.90
24645;DHT22;12780;45.502;9.146;2023-03-30T09:11:33;16.00;99.90
24645;DHT22;12780;45.502;9.146;2023-03-30T09:14:03;16.10;99.90
24645;DHT22;12780;45.502;9.146;2023-03-30T09:16:37;16.20;99.90
24645;DHT22;12780;45.502;9.146;2023-03-30T09:19:13;16.30;99.90
24645;DHT22;12780;45.502;9.146;2023-03-30T09:21:41;16.40;99.90
24645;DHT22;12780;45.502;9.146;2023-03-30T09:24:12;16.50;99.90
24645;DHT22;12780;45.502;9.146;2023-03-30T09:29:31;16.60;99.90
24645;DHT22;12780;45.502;9.146;2023-03-30T09:34:58;16.70;99.90
24645;DHT22;12780;45.502;9.146;2023-03-30T09:37:24;16.70;99.90
24645;DHT22;12780;45.502;9.146;2023-03-30T09:39:50;16.60;99.90
24645;DHT22;12780;45.502;9.146;2023-03-30T09:42:51;16.60;99.90
24645;DHT22;12780;45.502;9.146;2023-03-30T09:45:24;16.60;99.90
24645;DHT22;12780;45.502;9.146;2023-03-30T09:47:51;16.50;99.90
24645;DHT22;12780;45.502;9.146;2023-03-30T09:50:24;16.60;99.90
24645;DHT22;12780;45.502;9.146;2023-03-30T09:52:58;16.60;99.90
24645;DHT22;12780;45.502;9.146;2023-03-30T09:55:25;16.60;99.90
24645;DHT22;12780;45.502;9.146;2023-03-30T09:57:52;16.60;99.90
24645;DHT22;12780;45.502;9.146;2023-03-30T10:00:30;16.60;99.90
24645;DHT22;12780;45.502;9.146;2023-03-30T10:05:24;16.70;99.90
24645;DHT22;12780;45.502;9.146;2023-03-30T10:07:58;16.50;99.90
24645;DHT22;12780;45.502;9.146;2023-03-30T10:12:53;16.60;99.90
24645;DHT22;12780;45.502;9.146;2023-03-30T10:15:21;16.80;99.90
24645;DHT22;12780;45.502;9.146;2023-03-30T10:17:49;16.90;99.90
24645;DHT22;12780;45.502;9.146;2023-03-30T10:20:36;17.00;99.90
24645;DHT22;12780;45.502;9.146;2023-03-30T10:23:10;17.10;99.90
24645;DHT22;12780;45.502;9.146;2023-03-30T10:25:40;17.20;99.90
24645;DHT22;12780;45.502;9.146;2023-03-30T10:28:15;17.20;99.90
24645;DHT22;12780;45.502;9.146;2023-03-30T10:30:53;17.30;99.90
24645;DHT22;12780;45.502;9.146;2023-03-30T10:33:20;17.50;99.90
24645;DHT22;12780;45.502;9.146;2023-03-30T10:35:48;17.60;99.90
24645;DHT22;12780;45.502;9.146;2023-03-30T10:38:18;17.60;99.90
24645;DHT22;12780;45.502;9.146;2023-03-30T10:40:45;17.80;99.90
24645;DHT22;12780;45.502;9.146;2023-03-30T10:43:14;17.80;99.90
24645;DHT22;12780;45.502;9.146;2023-03-30T10:45:50;17.80;99.90
24645;DHT22;12780;45.502;9.146;2023-03-30T10:54:26;17.50;99.90
24645;DHT22;12780;45.502;9.146;2023-03-30T10:56:58;17.50;99.90
24645;DHT22;12780;45.502;9.146;2023-03-30T11:05:12;17.60;99.90
24645;DHT22;12780;45.502;9.146;2023-03-30T11:07:53;17.60;99.90
24645;DHT22;12780;45.502;9.146;2023-03-30T11:10:31;17.60;99.90
24645;DHT22;12780;45.502;9.146;2023-03-30T11:18:29;17.70;99.90
24645;DHT22;12780;45.502;9.146;2023-03-30T11:21:01;17.80;99.90
24645;DHT22;12780;45.502;9.146;2023-03-30T11:23:50;17.90;99.90
24645;DHT22;12780;45.502;9.146;2023-03-30T11:26:30;18.00;99.90
24645;DHT22;12780;45.502;9.146;2023-03-30T11:34:43;18.20;99.90
24645;DHT22;12780;45.502;9.146;2023-03-30T11:37:19;18.30;99.90
24645;DHT22;12780;45.502;9.146;2023-03-30T11:42:36;18.20;99.90
24645;DHT22;12780;45.502;9.146;2023-03-30T11:50:51;17.90;99.90
24645;DHT22;12780;45.502;9.146;2023-03-30T11:56:43;17.60;99.90
24645;DHT22;12780;45.502;9.146;2023-03-30T11:59:22;17.40;99.90
24645;DHT22;12780;45.502;9.146;2023-03-30T12:04:30;17.30;99.90
24645;DHT22;12780;45.502;9.146;2023-03-30T12:07:01;17.40;99.90
24645;DHT22;12780;45.502;9.146;2023-03-30T12:09:38;17.30;99.90
24645;DHT22;12780;45.502;9.146;2023-03-30T12:12:12;17.40;99.90
24645;DHT22;12780;45.502;9.146;2023-03-30T12:17:25;17.60;99.90
24645;DHT22;12780;45.502;9.146;2023-03-30T12:22:41;17.60;99.90
24645;DHT22;12780;45.502;9.146;2023-03-30T12:25:31;17.50;99.90
24645;DHT22;12780;45.502;9.146;2023-03-30T12:28:03;17.50;99.90
24645;DHT22;12780;45.502;9.146;2023-03-30T12:30:55;17.40;99.90
24645;DHT22;12780;45.502;9.146;2023-03-30T12:36:03;17.40;99.90
24645;DHT22;12780;45.502;9.146;2023-03-30T12:38:37;17.30;99.90
24645;DHT22;12780;45.502;9.146;2023-03-30T12:41:11;17.40;99.90
24645;DHT22;12780;45.502;9.146;2023-03-30T12:44:07;17.40;99.90
24645;DHT22;12780;45.502;9.146;2023-03-30T12:47:00;17.50;99.90
24645;DHT22;12780;45.502;9.146;2023-03-30T12:52:26;17.70;99.90
24645;DHT22;12780;45.502;9.146;2023-03-30T12:55:22;17.70;99.90
24645;DHT22;12780;45.502;9.146;2023-03-30T12:58:17;17.80;99.90
24645;DHT22;12780;45.502;9.146;2023-03-30T13:06:03;18.10;99.90
24645;DHT22;12780;45.502;9.146;2023-03-30T13:08:31;18.20;99.90
24645;DHT22;12780;45.502;9.146;2023-03-30T13:11:12;18.20;99.90
24645;DHT22;12780;45.502;9.146;2023-03-30T13:13:57;18.30;99.90
24645;DHT22;12780;45.502;9.146;2023-03-30T13:35:34;18.80;99.90
24645;DHT22;12780;45.502;9.146;2023-03-30T13:38:23;18.80;99.90
24645;DHT22;12780;45.502;9.146;2023-03-30T13:41:12;18.80;99.90
24645;DHT22;12780;45.502;9.146;2023-03-30T13:46:48;18.90;99.90
24645;DHT22;12780;45.502;9.146;2023-03-30T13:52:27;19.00;99.90
24645;DHT22;12780;45.502;9.146;2023-03-30T13:54:55;19.20;99.90
24645;DHT22;12780;45.502;9.146;2023-03-30T13:57:27;19.30;99.90
24645;DHT22;12780;45.502;9.146;2023-03-30T14:02:44;19.40;99.90
24645;DHT22;12780;45.502;9.146;2023-03-30T14:05:18;19.50;99.90
24645;DHT22;12780;45.502;9.146;2023-03-30T14:07:45;19.50;99.90
24645;DHT22;12780;45.502;9.146;2023-03-30T14:10:19;19.50;99.90
24645;DHT22;12780;45.502;9.146;2023-03-30T14:12:52;19.50;99.90
24645;DHT22;12780;45.502;9.146;2023-03-30T14:15:22;19.50;99.90
24645;DHT22;12780;45.502;9.146;2023-03-30T14:17:50;19.40;99.90
24645;DHT22;12780;45.502;9.146;2023-03-30T14:22:56;19.40;99.90
24645;DHT22;12780;45.502;9.146;2023-03-30T14:25:34;19.50;99.90
24645;DHT22;12780;45.502;9.146;2023-03-30T14:28:17;19.60;99.90
24645;DHT22;12780;45.502;9.146;2023-03-30T14:30:55;19.60;99.90
24645;DHT22;12780;45.502;9.146;2023-03-30T14:33:22;19.50;99.90
24645;DHT22;12780;45.502;9.146;2023-03-30T14:35:53;19.40;99.90
24645;DHT22;12780;45.502;9.146;2023-03-30T14:40:47;19.10;99.90
24645;DHT22;12780;45.502;9.146;2023-03-30T14:43:15;19.10;99.90
24645;DHT22;12780;45.502;9.146;2023-03-30T14:45:42;19.00;99.90
24645;DHT22;12780;45.502;9.146;2023-03-30T14:48:28;19.00;99.90
24645;DHT22;12780;45.502;9.146;2023-03-30T14:50:55;19.10;99.90
24645;DHT22;12780;45.502;9.146;2023-03-30T14:53:28;19.00;99.90
24645;DHT22;12780;45.502;9.146;2023-03-30T14:55:56;19.10;99.90
24645;DHT22;12780;45.502;9.146;2023-03-30T14:58:23;19.10;99.90
24645;DHT22;12780;45.502;9.146;2023-03-30T15:00:58;19.10;99.90
24645;DHT22;12780;45.502;9.146;2023-03-30T15:03:27;19.10;99.90
24645;DHT22;12780;45.502;9.146;2023-03-30T15:05:54;18.90;99.90
24645;DHT22;12780;45.502;9.146;2023-03-30T15:08:25;18.90;99.90
24645;DHT22;12780;45.502;9.146;2023-03-30T15:10:55;18.90;99.90
24645;DHT22;12780;45.502;9.146;2023-03-30T15:13:40;18.90;99.90
24645;DHT22;12780;45.502;9.146;2023-03-30T15:16:07;18.80;99.90
24645;DHT22;12780;45.502;9.146;2023-03-30T15:18:36;18.70;99.90
24645;DHT22;12780;45.502;9.146;2023-03-30T15:21:02;18.80;99.90
24645;DHT22;12780;45.502;9.146;2023-03-30T15:23:35;18.70;99.90
24645;DHT22;12780;45.502;9.146;2023-03-30T15:26:03;18.90;99.90
24645;DHT22;12780;45.502;9.146;2023-03-30T15:28:42;19.00;99.90
24645;DHT22;12780;45.502;9.146;2023-03-30T15:31:10;19.00;99.90
24645;DHT22;12780;45.502;9.146;2023-03-30T15:33:54;19.10;99.90
24645;DHT22;12780;45.502;9.146;2023-03-30T15:36:25;18.90;99.90
24645;DHT22;12780;45.502;9.146;2023-03-30T15:38:52;18.90;99.90
24645;DHT22;12780;45.502;9.146;2023-03-30T15:41:22;18.90;99.90
24645;DHT22;12780;45.502;9.146;2023-03-30T15:43:53;18.80;99.90
24645;DHT22;12780;45.502;9.146;2023-03-30T15:46:19;18.80;99.90
24645;DHT22;12780;45.502;9.146;2023-03-30T15:48:47;18.70;99.90
24645;DHT22;12780;45.502;9.146;2023-03-30T15:53:57;18.60;99.90
24645;DHT22;12780;45.502;9.146;2023-03-30T15:56:38;18.60;99.90
24645;DHT22;12780;45.502;9.146;2023-03-30T15:59:04;18.60;99.90
24645;DHT22;12780;45.502;9.146;2023-03-30T16:01:54;18.50;99.90
24645;DHT22;12780;45.502;9.146;2023-03-30T16:04:22;18.40;99.90
24645;DHT22;12780;45.502;9.146;2023-03-30T16:06:49;18.30;99.90
24645;DHT22;12780;45.502;9.146;2023-03-30T16:09:15;18.20;99.90
24645;DHT22;12780;45.502;9.146;2023-03-30T16:11:43;18.20;99.90
24645;DHT22;12780;45.502;9.146;2023-03-30T16:14:12;18.10;99.90
24645;DHT22;12780;45.502;9.146;2023-03-30T16:16:38;18.10;99.90
24645;DHT22;12780;45.502;9.146;2023-03-30T16:19:12;18.10;99.90
24645;DHT22;12780;45.502;9.146;2023-03-30T16:21:38;18.20;99.90
24645;DHT22;12780;45.502;9.146;2023-03-30T16:24:04;18.10;99.90
24645;DHT22;12780;45.502;9.146;2023-03-30T16:26:30;18.00;99.90
24645;DHT22;12780;45.502;9.146;2023-03-30T16:28:56;18.00;99.90
24645;DHT22;12780;45.502;9.146;2023-03-30T16:31:22;18.00;99.90
24645;DHT22;12780;45.502;9.146;2023-03-30T16:33:48;18.00;99.90
24645;DHT22;12780;45.502;9.146;2023-03-30T16:36:17;18.00;99.90
24645;DHT22;12780;45.502;9.146;2023-03-30T16:38:43;17.80;99.90
24645;DHT22;12780;45.502;9.146;2023-03-30T16:41:18;17.80;99.90
24645;DHT22;12780;45.502;9.146;2023-03-30T16:43:45;17.70;99.90
24645;DHT22;12780;45.502;9.146;2023-03-30T16:46:12;17.70;99.90
24645;DHT22;12780;45.502;9.146;2023-03-30T16:48:38;17.60;99.90
24645;DHT22;12780;45.502;9.146;2023-03-30T16:51:04;17.60;99.90
24645;DHT22;12780;45.502;9.146;2023-03-30T16:53:30;17.60;99.90
24645;DHT22;12780;45.502;9.146;2023-03-30T16:55:56;17.50;99.90
24645;DHT22;12780;45.502;9.146;2023-03-30T16:58:21;17.50;99.90
24645;DHT22;12780;45.502;9.146;2023-03-30T17:00:52;17.50;99.90
24645;DHT22;12780;45.502;9.146;2023-03-30T17:03:18;17.40;99.90
24645;DHT22;12780;45.502;9.146;2023-03-30T17:05:45;17.20;99.90
24645;DHT22;12780;45.502;9.146;2023-03-30T17:08:26;17.20;99.90
24645;DHT22;12780;45.502;9.146;2023-03-30T17:10:54;17.20;99.90
24645;DHT22;12780;45.502;9.146;2023-03-30T17:13:20;17.10;99.90
24645;DHT22;12780;45.502;9.146;2023-03-30T17:15:46;17.10;99.90
24645;DHT22;12780;45.502;9.146;2023-03-30T17:18:14;17.00;99.90
24645;DHT22;12780;45.502;9.146;2023-03-30T17:20:48;17.00;99.90
24645;DHT22;12780;45.502;9.146;2023-03-30T17:23:17;16.90;99.90
24645;DHT22;12780;45.502;9.146;2023-03-30T17:25:43;16.90;99.90
24645;DHT22;12780;45.502;9.146;2023-03-30T17:30:53;16.80;99.90
24645;DHT22;12780;45.502;9.146;2023-03-30T17:33:19;16.70;99.90
24645;DHT22;12780;45.502;9.146;2023-03-30T17:35:48;16.70;99.90
24645;DHT22;12780;45.502;9.146;2023-03-30T17:38:15;16.70;99.90
24645;DHT22;12780;45.502;9.146;2023-03-30T17:40:41;16.70;99.90
24645;DHT22;12780;45.502;9.146;2023-03-30T17:43:08;16.60;99.90
24645;DHT22;12780;45.502;9.146;2023-03-30T17:45:36;16.50;99.90
24645;DHT22;12780;45.502;9.146;2023-03-30T17:48:04;16.60;99.90
24645;DHT22;12780;45.502;9.146;2023-03-30T17:50:33;16.50;99.90
24645;DHT22;12780;45.502;9.146;2023-03-30T17:52:58;16.40;99.90
24645;DHT22;12780;45.502;9.146;2023-03-30T17:55:27;16.40;99.90
24645;DHT22;12780;45.502;9.146;2023-03-30T17:57:53;16.40;99.90
24645;DHT22;12780;45.502;9.146;2023-03-30T18:02:45;16.30;99.90
24645;DHT22;12780;45.502;9.146;2023-03-30T18:05:12;16.20;99.90
24645;DHT22;12780;45.502;9.146;2023-03-30T18:07:38;16.20;99.90
24645;DHT22;12780;45.502;9.146;2023-03-30T18:10:26;16.20;99.90